Terminal Aerodrome Forecast
Issued by NWS

Home | Current Version | Previous Version | Text Only | Print | Product List | Glossary On
Versions: 1 2 3 4 5 6 7 8 9 10 11 12
000
FTUS45 KVEF 201700
TAFHND
TAF
KHND 201721Z 2018/2118 VRB05KT P6SM FEW140
     FM202000 16007KT P6SM SCT140 SCT250
     FM210300 18007KT P6SM FEW140 BKN250=

USA.gov is the U.S. government's official web portal to all federal, state and local government web resources and services.